createdAt,value
2023-04-21T00:04:45.807Z,100063.91
2023-04-21T00:09:47.432Z,100073.31
2023-04-21T00:14:48.769Z,100063.97
2023-04-21T00:19:50.425Z,100058.59
2023-04-21T00:24:51.933Z,100062.09
2023-04-21T00:29:53.248Z,100067.94
2023-04-21T00:34:54.557Z,100056.00
2023-04-21T00:39:55.864Z,100064.06
2023-04-21T00:44:57.271Z,100064.94
2023-04-21T00:49:59.099Z,100045.81
2023-04-21T00:55:00.874Z,100046.47
2023-04-21T01:00:03.385Z,100038.94
2023-04-21T01:05:08.911Z,100046.09
2023-04-21T01:10:10.600Z,100049.75
2023-04-21T01:15:13.464Z,100052.63
2023-04-21T01:20:15.564Z,100048.41
2023-04-21T01:25:18.428Z,100046.75
2023-04-21T01:30:19.760Z,100049.06
2023-04-21T01:35:21.132Z,100055.09
2023-04-21T01:40:22.517Z,100044.25
2023-04-21T01:45:23.896Z,100041.25
2023-04-21T01:50:25.309Z,100040.59
2023-04-21T01:55:26.670Z,100037.28
2023-04-21T02:00:28.156Z,100045.53
2023-04-21T02:05:29.534Z,100040.00
2023-04-21T02:10:30.979Z,100040.34
2023-04-21T02:15:32.415Z,100043.00
2023-04-21T02:20:33.842Z,100046.03
2023-04-21T02:25:35.301Z,100046.19
2023-04-21T02:30:36.645Z,100037.00
2023-04-21T02:35:37.979Z,100046.69
2023-04-21T02:40:39.416Z,100048.59
2023-04-21T02:45:40.779Z,100049.25
2023-04-21T02:50:42.870Z,100051.59
2023-04-21T02:55:44.296Z,100048.09
2023-04-21T03:00:45.840Z,100055.63
2023-04-21T03:05:47.184Z,100065.31
2023-04-21T03:10:48.515Z,100058.47
2023-04-21T03:15:51.046Z,100048.94
2023-04-21T03:20:52.726Z,100043.63
2023-04-21T03:25:54.179Z,100053.69
2023-04-21T03:30:55.502Z,100059.91
2023-04-21T03:35:56.852Z,100066.75
2023-04-21T03:40:58.218Z,100056.69
2023-04-21T03:45:59.611Z,100053.00
2023-04-21T03:51:01.014Z,100055.84
2023-04-21T03:56:02.353Z,100052.16
2023-04-21T04:01:07.419Z,100039.59
2023-04-21T04:06:08.805Z,100044.09
2023-04-21T04:11:10.155Z,100046.63
2023-04-21T04:16:11.630Z,100050.81
2023-04-21T04:21:13.025Z,100044.50
2023-04-21T04:26:14.489Z,100049.50
2023-04-21T04:31:17.136Z,100059.72
2023-04-21T04:36:18.733Z,100054.81
2023-04-21T04:41:20.930Z,100049.31
2023-04-21T04:46:22.362Z,100042.75
2023-04-21T04:51:23.807Z,100051.16
2023-04-21T04:56:25.360Z,100040.97
2023-04-21T05:01:30.521Z,100029.84
2023-04-21T05:06:32.381Z,100028.31
2023-04-21T05:11:33.740Z,100041.19
2023-04-21T05:16:35.216Z,100042.34
2023-04-21T05:21:36.567Z,100050.59
2023-04-21T05:26:37.899Z,100047.88
2023-04-21T05:31:39.296Z,100051.84
2023-04-21T05:36:44.136Z,100038.41
2023-04-21T05:41:45.655Z,100028.47
2023-04-21T05:46:46.983Z,100040.00
2023-04-21T05:51:48.326Z,100045.34
2023-04-21T05:56:49.653Z,100040.91
2023-04-21T06:01:51.082Z,100040.47
2023-04-21T06:06:52.433Z,100042.59
2023-04-21T06:11:53.797Z,100046.25
2023-04-21T06:16:55.247Z,100036.75
2023-04-21T06:21:57.328Z,100040.59
2023-04-21T06:27:07.765Z,100029.75
2023-04-21T06:32:10.210Z,100030.22
2023-04-21T06:37:11.643Z,100029.84
2023-04-21T06:42:13.058Z,100038.31
2023-04-21T06:47:16.604Z,100043.84
2023-04-21T06:52:19.606Z,100042.44
2023-04-21T06:57:21.592Z,100035.34
2023-04-21T07:02:23.030Z,100042.81
2023-04-21T07:07:24.446Z,100048.03
2023-04-21T07:12:26.008Z,100041.63
2023-04-21T07:17:27.582Z,100029.28
2023-04-21T07:22:29.041Z,100035.00
2023-04-21T07:27:30.490Z,100045.47
2023-04-21T07:32:32.361Z,100041.84
2023-04-21T07:37:33.749Z,100041.34
2023-04-21T07:42:35.483Z,100039.53
2023-04-21T07:47:36.886Z,100054.41
2023-04-21T07:52:38.306Z,100040.03
2023-04-21T07:57:40.134Z,100040.56
2023-04-21T08:02:41.911Z,100042.69
2023-04-21T08:07:43.531Z,100029.88
2023-04-21T08:12:44.880Z,100028.41
2023-04-21T08:17:46.289Z,100012.44
2023-04-21T08:22:48.544Z,100014.75
2023-04-21T08:27:50.039Z,100021.59
2023-04-21T08:32:51.451Z,100023.88
2023-04-21T08:37:53.576Z,100027.19
2023-04-21T08:42:56.433Z,100022.41
2023-04-21T08:48:01.306Z,100020.06
2023-04-21T08:53:02.845Z,100007.53
2023-04-21T08:58:04.905Z,100005.66
2023-04-21T09:03:19.249Z,100028.16
2023-04-21T09:08:26.836Z,100019.31
2023-04-21T09:13:37.807Z,100027.16
2023-04-21T09:18:40.304Z,100018.16
2023-04-21T09:23:52.710Z,100019.75
2023-04-21T09:28:54.053Z,100019.66
2023-04-21T09:34:00.236Z,100025.22
2023-04-21T09:44:08.763Z,100032.72
2023-04-21T09:49:13.623Z,100030.09
2023-04-21T09:54:29.770Z,100018.00
2023-04-21T09:59:40.592Z,100023.41
2023-04-21T10:04:43.906Z,100014.22
2023-04-21T10:09:50.949Z,100013.59
2023-04-21T10:14:53.516Z,100010.44
2023-04-21T10:19:57.561Z,100004.13
2023-04-21T10:25:01.332Z,99985.84
2023-04-21T10:30:23.146Z,99981.66
2023-04-21T10:35:24.665Z,99983.19
2023-04-21T10:45:40.904Z,99971.38
2023-04-21T10:50:44.231Z,99972.56
2023-04-21T10:55:48.939Z,99968.31
2023-04-21T11:00:55.527Z,99973.53
2023-04-21T11:05:56.942Z,99975.75
2023-04-21T11:10:58.292Z,99976.09
2023-04-21T11:16:05.676Z,99969.72
2023-04-21T11:21:18.641Z,99956.13
2023-04-21T11:26:33.632Z,99958.25
2023-04-21T11:31:36.904Z,99949.78
2023-04-21T11:36:43.496Z,99954.91
2023-04-21T11:41:46.555Z,99938.47
2023-04-21T11:46:48.444Z,99940.50
2023-04-21T11:51:50.231Z,99937.13
2023-04-21T11:56:54.215Z,99932.94
2023-04-21T12:01:55.652Z,99930.50
2023-04-21T12:07:02.031Z,99926.44
2023-04-21T12:12:05.310Z,99926.56
2023-04-21T12:17:06.907Z,99921.22
2023-04-21T12:22:12.556Z,99918.75
2023-04-21T12:27:14.448Z,99907.41
2023-04-21T12:32:15.815Z,99907.91
2023-04-21T12:37:18.548Z,99897.88
2023-04-21T12:42:19.866Z,99900.28
2023-04-21T12:47:21.299Z,99895.88
2023-04-21T12:52:22.685Z,99893.00
2023-04-21T12:57:24.093Z,99889.72
2023-04-21T13:02:25.647Z,99874.41
2023-04-21T13:07:31.173Z,99873.44
2023-04-21T13:12:33.205Z,99872.25
2023-04-21T13:17:34.548Z,99877.66
2023-04-21T13:22:36.016Z,99852.81
2023-04-21T13:27:39.810Z,99844.00
2023-04-21T13:32:42.292Z,99837.22
2023-04-21T13:37:43.686Z,99826.88
2023-04-21T13:42:45.053Z,99822.31
2023-04-21T13:47:46.609Z,99814.59
2023-04-21T13:52:47.987Z,99816.13
2023-04-21T13:57:49.703Z,99790.81
2023-04-21T14:02:51.250Z,99795.56
2023-04-21T14:07:52.913Z,99782.63
2023-04-21T14:12:54.385Z,99770.13
2023-04-21T14:17:56.517Z,99747.88
2023-04-21T14:22:57.957Z,99739.59
2023-04-21T14:27:59.910Z,99734.38
2023-04-21T14:33:03.183Z,99720.66
2023-04-21T14:38:04.724Z,99719.66
2023-04-21T14:43:06.182Z,99707.13
2023-04-21T14:48:07.654Z,99702.25
2023-04-21T14:53:09.079Z,99697.75
2023-04-21T14:58:10.460Z,99688.94
2023-04-21T15:03:12.120Z,99682.34
2023-04-21T15:08:17.955Z,99673.97
2023-04-21T15:13:19.351Z,99672.69
2023-04-21T15:18:21.054Z,99668.88
2023-04-21T15:23:22.417Z,99658.56
2023-04-21T15:28:23.799Z,99649.97
2023-04-21T15:33:25.238Z,99644.44
2023-04-21T15:38:26.799Z,99640.97
2023-04-21T15:43:28.723Z,99629.88
2023-04-21T15:48:30.829Z,99628.28
2023-04-21T15:53:33.971Z,99625.88
2023-04-21T15:58:35.417Z,99632.38
2023-04-21T16:03:37.216Z,99622.94
2023-04-21T16:08:38.707Z,99608.34
2023-04-21T16:13:40.172Z,99593.88
2023-04-21T16:18:41.557Z,99585.81
2023-04-21T16:23:42.979Z,99582.59
2023-04-21T16:28:44.336Z,99558.47
2023-04-21T16:33:45.735Z,99562.38
2023-04-21T16:38:47.243Z,99564.63
2023-04-21T16:43:48.715Z,99563.22
2023-04-21T16:48:50.566Z,99552.28
2023-04-21T16:53:52.166Z,99553.28
2023-04-21T16:58:53.622Z,99556.25
2023-04-21T17:03:55.102Z,99546.44
2023-04-21T17:08:59.708Z,99559.16
2023-04-21T17:14:01.581Z,99565.50
2023-04-21T17:19:02.991Z,99563.44
2023-04-21T17:24:04.425Z,99572.44
2023-04-21T17:29:06.456Z,99578.44
2023-04-21T17:34:07.831Z,99577.22
2023-04-21T17:39:10.254Z,99582.75
2023-04-21T17:44:11.932Z,99587.53
2023-04-21T17:49:13.305Z,99595.19
2023-04-21T17:54:14.647Z,99596.38
2023-04-21T17:59:16.270Z,99593.06
2023-04-21T18:04:18.041Z,99590.28
2023-04-21T18:09:20.780Z,99581.16
2023-04-21T18:14:22.211Z,99591.41
2023-04-21T18:19:23.588Z,99618.94
2023-04-21T18:24:25.203Z,99618.84
2023-04-21T18:29:26.580Z,99620.88
2023-04-21T18:34:27.958Z,99621.91
2023-04-21T18:39:29.443Z,99624.44
2023-04-21T18:44:31.251Z,99619.06
2023-04-21T18:49:33.041Z,99617.97
2023-04-21T18:54:35.047Z,99628.34
2023-04-21T18:59:36.785Z,99629.38
2023-04-21T19:04:38.363Z,99630.88
2023-04-21T19:09:39.950Z,99628.00
2023-04-21T19:14:47.003Z,99638.88
2023-04-21T19:19:49.552Z,99632.84
2023-04-21T19:24:51.375Z,99636.88
2023-04-21T19:29:52.715Z,99627.06
2023-04-21T19:34:54.129Z,99617.69
2023-04-21T19:39:55.909Z,99622.47
2023-04-21T19:44:57.389Z,99624.63
2023-04-21T19:49:58.784Z,99628.38
2023-04-21T19:55:00.246Z,99633.19
2023-04-21T20:00:01.846Z,99643.03
2023-04-21T20:05:03.509Z,99648.34
2023-04-21T20:10:06.128Z,99637.63
2023-04-21T20:15:08.207Z,99638.59
2023-04-21T20:20:10.314Z,99644.13
2023-04-21T20:25:12.742Z,99650.41
2023-04-21T20:30:14.334Z,99654.09
2023-04-21T20:35:16.920Z,99654.81
2023-04-21T20:40:18.697Z,99713.56
2023-04-21T20:45:20.139Z,99695.44
2023-04-21T20:50:23.276Z,99694.00
2023-04-21T20:55:24.790Z,99685.22
2023-04-21T21:00:26.513Z,99688.47
2023-04-21T21:05:30.213Z,99673.34
2023-04-21T21:10:31.636Z,99667.19
2023-04-21T21:15:33.857Z,99674.97
2023-04-21T21:20:35.269Z,99676.53
2023-04-21T21:25:36.632Z,99662.56
2023-04-21T21:30:37.960Z,99654.50
2023-04-21T21:35:39.343Z,99674.38
2023-04-21T21:40:40.963Z,99684.41
2023-04-21T21:45:42.358Z,99680.91
2023-04-21T21:50:43.720Z,99678.34
2023-04-21T21:55:45.080Z,99671.25
2023-04-21T22:00:51.564Z,99677.34
2023-04-21T22:05:53.112Z,99671.66
2023-04-21T22:10:54.514Z,99670.78
2023-04-21T22:15:56.493Z,99672.81
2023-04-21T22:20:58.949Z,99681.66
2023-04-21T22:26:00.432Z,99688.34
2023-04-21T22:31:01.915Z,99684.81
2023-04-21T22:36:03.581Z,99700.47
2023-04-21T22:41:05.144Z,99692.63
2023-04-21T22:46:06.823Z,99698.50
2023-04-21T22:51:08.141Z,99700.19
2023-04-21T22:56:09.516Z,99708.81
2023-04-21T23:01:10.982Z,99700.47
2023-04-21T23:06:13.287Z,99699.66
2023-04-21T23:11:14.646Z,99701.34
2023-04-21T23:16:16.354Z,99700.75
2023-04-21T23:21:17.819Z,99700.53
2023-04-21T23:26:19.245Z,99706.00
2023-04-21T23:31:20.714Z,99702.22
2023-04-21T23:36:22.093Z,99700.75
2023-04-21T23:41:23.579Z,99701.00
2023-04-21T23:46:24.918Z,99700.75
2023-04-21T23:51:27.095Z,99700.19
2023-04-21T23:56:28.986Z,99694.16
